Home > Products > Valid Products > MTR

000
SAUS46 KPQR 081153
MTRREO
METAR KREO 081152Z AUTO 00000KT M02/M03 A3062 RMK AO1 SLP381
T10171028 10011 21017 58001





000
SAUS46 KPQR 081053
MTRREO
METAR KREO 081052Z AUTO 00000KT M02/M03 A3062 RMK AO1 SLP380
T10171033





000
SAUS46 KPQR 080953
MTRREO
METAR KREO 080952Z AUTO 11003KT M01/M02 A3062 RMK AO1 SLP380
T10061017





000
SAUS46 KPQR 080853
MTRREO
METAR KREO 080852Z AUTO 16005KT 00/M02 A3062 RMK AO1 SLP379
T00001017 50001





000
SAUS46 KPQR 080853
MTRREO
METAR KREO 080852Z AUTO 16005KT 00/M02 A3062 RMK AO1 SLP379
T00001017 50001





000
SAUS46 KPQR 080753
MTRREO
METAR KREO 080752Z AUTO 17004KT 00/M02 A3063 RMK AO1 SLP386
T00001017 401281011





000
SAUS46 KPQR 080653
MTRREO
METAR KREO 080652Z AUTO 13004KT 00/M01 A3063 RMK AO1 SLP386
T00001011





000
SAUS46 KPQR 080553
MTRREO
METAR KREO 080552Z AUTO 00000KT 01/M01 A3062 RMK AO1 SLP384
T00111011 10117 20000 53007





000
SAUS46 KPQR 080553
MTRREO
METAR KREO 080552Z AUTO 00000KT 01/M01 A3062 RMK AO1 SLP384
T00111011 10117 20000 53007





000
SAUS46 KPQR 080453
MTRREO
METAR KREO 080452Z AUTO 09005KT 01/M01 A3060 RMK AO1 SLP381
T00111006





000
SAUS46 KPQR 080453
MTRREO
METAR KREO 080452Z AUTO 09005KT 01/M01 A3060 RMK AO1 SLP381
T00111006





000
SAUS46 KPQR 080353
MTRREO
METAR KREO 080352Z AUTO 15006KT 03/01 A3060 RMK AO1 SLP383 T00280006





000
SAUS46 KPQR 080353
MTRREO
METAR KREO 080352Z AUTO 15006KT 03/01 A3060 RMK AO1 SLP383 T00280006





000
SAUS46 KPQR 080253
MTRREO
METAR KREO 080252Z AUTO 06003KT 03/01 A3060 RMK AO1 SLP385 T00330006
51011





000
SAUS46 KPQR 080153
MTRREO
METAR KREO 080152Z AUTO 06007KT 06/02 A3060 RMK AO1 SLP380 T00560017





000
SAUS46 KPQR 080053
MTRREO
METAR KREO 080052Z AUTO 04005KT 11/02 A3058 RMK AO1 SLP367 T01060022





000
SAUS46 KPQR 080053
MTRREO
METAR KREO 080052Z AUTO 04005KT 11/02 A3058 RMK AO1 SLP367 T01060022





000
SAUS46 KPQR 072353
MTRREO
METAR KREO 072352Z AUTO 03005KT 12/02 A3056 RMK AO1 SLP355 T01170022
10128 20061 53001





000
SAUS46 KPQR 072253
MTRREO
METAR KREO 072252Z AUTO 02005KT 12/02 A3055 RMK AO1 SLP351 T01220022





000
SAUS46 KPQR 072253
MTRREO
METAR KREO 072252Z AUTO 02005KT 12/02 A3055 RMK AO1 SLP351 T01220022





000
SAUS46 KPQR 072153
MTRREO
METAR KREO 072152Z AUTO 00000KT 12/02 A3054 RMK AO1 SLP347 T01220017





000
SAUS46 KPQR 072053
MTRREO
METAR KREO 072052Z AUTO 00000KT 12/01 A3056 RMK AO1 SLP354 T01170011
58010





000
SAUS46 KPQR 071953
MTRREO
METAR KREO 071952Z AUTO 00000KT 10/01 A3058 RMK AO1 SLP364 T01000006





000
SAUS46 KPQR 071853
MTRREO
METAR KREO 071852Z AUTO 00000KT 08/M01 A3059 RMK AO1 SLP370
T00831006





000
SAUS46 KPQR 071853
MTRREO
METAR KREO 071852Z AUTO 00000KT 08/M01 A3059 RMK AO1 SLP370
T00831006





000
SAUS46 KPQR 071753
MTRREO
METAR KREO 071752Z AUTO 00000KT 07/M01 A3059 RMK AO1 SLP372
T00671006 10067 21011 51018





000
SAUS46 KPQR 071753
MTRREO
METAR KREO 071752Z AUTO 00000KT 07/M01 A3059 RMK AO1 SLP372
T00671006 10067 21011 51018





000
SAUS46 KPQR 071653
MTRREO
METAR KREO 071652Z AUTO 00000KT 04/M01 A3057 RMK AO1 SLP369
T00441006





000
SAUS46 KPQR 071553
MTRREO
METAR KREO 071552Z AUTO 17004KT 01/M02 A3055 RMK AO1 SLP365
T00111017





000
SAUS46 KPQR 071453
MTRREO
METAR KREO 071452Z AUTO 18004KT M01/M03 A3053 RMK AO1 SLP361
T10111028 53014





000
SAUS46 KPQR 071453
MTRREO
METAR KREO 071452Z AUTO 18004KT M01/M03 A3053 RMK AO1 SLP361
T10111028 53014





000
SAUS46 KPQR 071353
MTRREO
METAR KREO 071352Z AUTO 16007KT 00/M03 A3051 RMK AO1 SLP350
T00001028





000
SAUS46 KPQR 071253
MTRREO
METAR KREO 071252Z AUTO 17007KT 00/M03 A3049 RMK AO1 SLP340
T00001028





000
SAUS46 KPQR 071153
MTRREO
METAR KREO 071152Z AUTO 16003KT 02/M02 A3049 RMK AO1 SLP335
T00171022 10033 20006 53012





000
SAUS46 KPQR 071053
MTRREO
METAR KREO 071052Z AUTO 00000KT 01/M02 A3048 RMK AO1 SLP332
T00111022





000
SAUS46 KPQR 070953
MTRREO
METAR KREO 070952Z AUTO 14011KT 03/M02 A3045 RMK AO1 SLP322
T00281017





000
SAUS46 KPQR 070853
MTRREO
METAR KREO 070852Z AUTO 15007KT 01/M02 A3045 RMK AO1 SLP322
T00111017 53008





000
SAUS46 KPQR 070753
MTRREO
METAR KREO 070752Z AUTO 17008KT 02/M02 A3044 RMK AO1 SLP319
T00221017 400890006





000
SAUS46 KPQR 070653
MTRREO
METAR KREO 070652Z AUTO 16008KT 02/M02 A3042 RMK AO1 SLP314
T00221017





000
SAUS46 KPQR 070653
MTRREO
METAR KREO 070652Z AUTO 16008KT 02/M02 A3042 RMK AO1 SLP314
T00221017





000
SAUS46 KPQR 070553
MTRREO
METAR KREO 070552Z AUTO 13012KT 03/M02 A3042 RMK AO1 SLP314
T00331017 10078 20033 50006





000
SAUS46 KPQR 070553
MTRREO
METAR KREO 070552Z AUTO 13012KT 03/M02 A3042 RMK AO1 SLP314
T00331017 10078 20033 50006





000
SAUS46 KPQR 070453
MTRREO
METAR KREO 070452Z AUTO 13010KT 03/M02 A3043 RMK AO1 SLP319
T00331017





000
SAUS46 KPQR 070453
MTRREO
METAR KREO 070452Z AUTO 13010KT 03/M02 A3043 RMK AO1 SLP319
T00331017





000
SAUS46 KPQR 070353
MTRREO
METAR KREO 070352Z AUTO 13013KT 04/M01 A3041 RMK AO1 SLP313
T00441011





000
SAUS46 KPQR 070253
MTRREO
METAR KREO 070252Z AUTO 13012KT 04/M02 A3040 RMK AO1 SLP310
T00441017 51008





000
SAUS46 KPQR 070253
MTRREO
METAR KREO 070252Z AUTO 13012KT 04/M02 A3040 RMK AO1 SLP310
T00441017 51008





000
SAUS46 KPQR 070153
MTRREO
METAR KREO 070152Z AUTO 13012KT 05/M01 A3039 RMK AO1 SLP307
T00501011





000
SAUS46 KPQR 070153
MTRREO
METAR KREO 070152Z AUTO 13012KT 05/M01 A3039 RMK AO1 SLP307
T00501011





000
SAUS46 KPQR 070053
MTRREO
METAR KREO 070052Z AUTO 13012KT 07/M01 A3038 RMK AO1 SLP301
T00671006





000
SAUS46 KPQR 070053
MTRREO
METAR KREO 070052Z AUTO 13012KT 07/M01 A3038 RMK AO1 SLP301
T00671006





000
SAUS46 KPQR 062353
MTRREO
METAR KREO 062352Z AUTO 14013G16KT 08/00 A3037 RMK AO1 SLP296
T00780000 10089 20050 56004





000
SAUS46 KPQR 062353
MTRREO
METAR KREO 062352Z AUTO 14013G16KT 08/00 A3037 RMK AO1 SLP296
T00780000 10089 20050 56004





000
SAUS46 KPQR 062253
MTRREO
METAR KREO 062252Z AUTO 13016KT 09/01 A3038 RMK AO1 SLP295 T00890006





000
SAUS46 KPQR 062153
MTRREO
METAR KREO 062152Z AUTO 13014KT 08/01 A3037 RMK AO1 SLP294 T00830006





000
SAUS46 KPQR 062054
MTRREO
METAR KREO 062052Z AUTO 13015KT 08/01 A3039 RMK AO1 SLP301 T00830006
58013





000
SAUS46 KPQR 061953
MTRREO
METAR KREO 061952Z AUTO 14015KT 07/00 A3040 RMK AO1 SLP306 T00720000





000
SAUS46 KPQR 061853
MTRREO
METAR KREO 061852Z AUTO 16008KT 07/M01 A3042 RMK AO1 SLP315
T00721011





000
SAUS46 KPQR 061853
MTRREO
METAR KREO 061852Z AUTO 16008KT 07/M01 A3042 RMK AO1 SLP315
T00721011





000
SAUS46 KPQR 061753
MTRREO
METAR KREO 061752Z AUTO 15010KT 05/M01 A3043 RMK AO1 SLP322
T00501011 10050 20017 53012





000
SAUS46 KPQR 061753
MTRREO
METAR KREO 061752Z AUTO 15010KT 05/M01 A3043 RMK AO1 SLP322
T00501011 10050 20017 53012





000
SAUS46 KPQR 061653
MTRREO
METAR KREO 061652Z AUTO 15010KT 03/M02 A3040 RMK AO1 SLP317
T00331022





000
SAUS46 KPQR 061653
MTRREO
METAR KREO 061652Z AUTO 15010KT 03/M02 A3040 RMK AO1 SLP317
T00331022





000
SAUS46 KPQR 061553
MTRREO
METAR KREO 061552Z AUTO 14011KT 02/M02 A3040 RMK AO1 SLP313
T00221022





000
SAUS46 KPQR 061453
MTRREO
METAR KREO 061452Z AUTO 17004KT 02/M03 A3039 RMK AO1 SLP310
T00171028 55001





000
SAUS46 KPQR 061353
MTRREO
METAR KREO 061352Z AUTO 15013KT 02/M03 A3037 RMK AO1 SLP301
T00171028





000
SAUS46 KPQR 061253
MTRREO
METAR KREO 061252Z AUTO 17010KT 02/M03 A3038 RMK AO1 SLP305
T00221028





000
SAUS46 KPQR 061153
MTRREO
METAR KREO 061152Z AUTO 00000KT 02/M03 A3039 RMK AO1 SLP306
T00221028 10028 21006 51015





000
SAUS46 KPQR 061153
MTRREO
METAR KREO 061152Z AUTO 00000KT 02/M03 A3039 RMK AO1 SLP306
T00221028 10028 21006 51015





000
SAUS46 KPQR 061053
MTRREO
METAR KREO 061052Z AUTO 00000KT 02/M03 A3038 RMK AO1 SLP300
T00221028





000
SAUS46 KPQR 061053
MTRREO
METAR KREO 061052Z AUTO 00000KT 02/M03 A3038 RMK AO1 SLP300
T00221028





000
SAUS46 KPQR 060953
MTRREO
METAR KREO 060952Z AUTO 19011KT 02/M03 A3039 RMK AO1 SLP300
T00221033





000
SAUS46 KPQR 060853
MTRREO
METAR KREO 060852Z AUTO 18005KT 02/M03 A3035 RMK AO1 SLP288
T00171033 58009





000
SAUS46 KPQR 060753
MTRREO
METAR KREO 060752Z AUTO 15014KT 03/M03 A3036 RMK AO1 SLP292
T00281028 400781017





000
SAUS46 KPQR 060653
MTRREO
METAR KREO 060652Z AUTO 00000KT 01/M03 A3038 RMK AO1 SLP308
T00061033





000
SAUS46 KPQR 060653
MTRREO
METAR KREO 060652Z AUTO 00000KT 01/M03 A3038 RMK AO1 SLP308
T00061033





000
SAUS46 KPQR 060553
MTRREO
METAR KREO 060552Z AUTO 17005KT 01/M03 A3038 RMK AO1 SLP307
T00061028 10050 21017 53004





000
SAUS46 KPQR 060553
MTRREO
METAR KREO 060552Z AUTO 17005KT 01/M03 A3038 RMK AO1 SLP307
T00061028 10050 21017 53004





000
SAUS46 KPQR 060453
MTRREO
METAR KREO 060452Z AUTO 19004KT M01/M04 A3037 RMK AO1 SLP306
T10111039





000
SAUS46 KPQR 060353
MTRREO
METAR KREO 060352Z AUTO 14005KT 02/M03 A3036 RMK AO1 SLP303
T00171033





000
SAUS46 KPQR 060253
MTRREO
METAR KREO 060252Z AUTO 14011KT 02/M03 A3036 RMK AO1 SLP304
T00221033 56010





000
SAUS46 KPQR 060253
MTRREO
METAR KREO 060252Z AUTO 14011KT 02/M03 A3036 RMK AO1 SLP304
T00221033 56010





000
SAUS46 KPQR 060153
MTRREO
METAR KREO 060152Z AUTO 15010KT 03/M03 A3037 RMK AO1 SLP305
T00281028





000
SAUS46 KPQR 060153
MTRREO
METAR KREO 060152Z AUTO 15010KT 03/M03 A3037 RMK AO1 SLP305
T00281028





000
SAUS46 KPQR 060053
MTRREO
METAR KREO 060052Z AUTO 14013KT 03/M03 A3038 RMK AO1 SLP307
T00331028





000
SAUS46 KPQR 060053
MTRREO
METAR KREO 060052Z AUTO 14013KT 03/M03 A3038 RMK AO1 SLP307
T00331028





000
SAUS46 KPQR 052353
MTRREO
METAR KREO 052352Z AUTO 14012KT 05/M02 A3040 RMK AO1 SLP312
T00501017 10078 20028 56011





000
SAUS46 KPQR 052353
MTRREO
METAR KREO 052352Z AUTO 14012KT 05/M02 A3040 RMK AO1 SLP312
T00501017 10078 20028 56011





000
SAUS46 KPQR 052253
MTRREO
METAR KREO 052252Z AUTO 13011KT 07/M01 A3041 RMK AO1 SLP314
T00671011





000
SAUS46 KPQR 052253
MTRREO
METAR KREO 052252Z AUTO 13011KT 07/M01 A3041 RMK AO1 SLP314
T00671011





000
SAUS46 KPQR 052153
MTRREO
METAR KREO 052152Z AUTO 08/M02 A3042 RMK AO1 SLP313 T00781017





000
SAUS46 KPQR 052053
MTRREO
METAR KREO 052052Z AUTO VRB04KT 07/M02 A3043 RMK AO1 SLP320
T00721022 56015





000
SAUS46 KPQR 051953
MTRREO
METAR KREO 051952Z AUTO 14011KT 06/M02 A3045 RMK AO1 SLP327
T00561017





000
SAUS46 KPQR 051853
MTRREO
METAR KREO 051852Z AUTO 13012KT 04/M03 A3047 RMK AO1 SLP337
T00391028





000
SAUS46 KPQR 051853
MTRREO
METAR KREO 051852Z AUTO 13012KT 04/M03 A3047 RMK AO1 SLP337
T00391028





000
SAUS46 KPQR 051753
MTRREO
METAR KREO 051752Z AUTO 14011KT 03/M04 A3048 RMK AO1 SLP344
T00281039 10028 21017 50001





000
SAUS46 KPQR 051753
MTRREO
METAR KREO 051752Z AUTO 14011KT 03/M04 A3048 RMK AO1 SLP344
T00281039 10028 21017 50001





000
SAUS46 KPQR 051657 COR
MTRREO
METAR KREO 051652Z AUTO 16009KT 02/M04 A3049 RMK AO1 SLP346
T00171039





000
SAUS46 KPQR 051657 COR
MTRREO
METAR KREO 051652Z AUTO 16009KT 02/M04 A3049 RMK AO1 SLP346
T00171039





000
SAUS46 KPQR 051653
MTRREO
METAR KREO 051652Z AUTO 16009KT 02/M04 A3049 RMK AO1 SLP346
T00171039





000
SAUS46 KPQR 051553
MTRREO
METAR KREO 051552Z AUTO 15011KT M01/M05 A3048 RMK AO1 SLP349
T10061050





000
SAUS46 KPQR 051453
MTRREO
METAR KREO 051452Z AUTO 14014KT M01/M06 A3048 RMK AO1 SLP347
T10111056 58002





000
SAUS46 KPQR 051353
MTRREO
METAR KREO 051352Z AUTO 18009KT M01/M05 A3049 RMK AO1 SLP349
T10061050





000
SAUS46 KPQR 051253
MTRREO
METAR KREO 051252Z AUTO 15011KT M01/M04 A3048 RMK AO1 SLP343
T10061044





000
SAUS46 KPQR 051253
MTRREO
METAR KREO 051252Z AUTO 15011KT M01/M04 A3048 RMK AO1 SLP343
T10061044





    US Dept of Commerce
    National Oceanic and Atmospheric Administration
    National Weather Service
    1325 East West Highway
    Silver Spring, MD 20910
    Page Author: NWS Internet Services Team
Disclaimer
Information Quality
Credits
Glossary
Privacy Policy
Freedom of Information Act (FOIA)
About Us
Career Opportunities